Jamaica, New York
Current Conditions -  °F | °C
As of 3:51 PM on Friday 21 Nov 2014 (Local Time) from KJFK Reporting Station
Few Clouds Few Clouds  
Wind Chill: 25°   Ceiling: Unl
Heat Index: 36°   Visibility: 10mi
Dew Point:   Wind: 20mph
Humidity: 29%   Direction: 300°WNW
Pressure: 30.38"   Gusts: 25mph
Location:  40.69°N, 73.81°W
Report Text: KJFK 212051Z 30017G22KT 10SM FEW065 02/M14 A3038 RMK AO2 SLP285 T00221144 53025
Loading
Personal Weather Stations






























Interactive Weather Map New forecast layout! Learn more

10-Day Weather Forecast

Advertisements
Track Severe Weather on mobile